sensor_id;sensor_type;location;lat;lon;timestamp;pressure;altitude;pressure_sealevel;temperature;humidity
68456;BME280;55437;55.046;38.838;2023-02-01T00:02:15;98883.34;;;2.45;63.13
68456;BME280;55437;55.046;38.838;2023-02-01T00:04:41;98874.75;;;2.54;62.84
68456;BME280;55437;55.046;38.838;2023-02-01T00:07:06;98875.56;;;2.56;62.74
68456;BME280;55437;55.046;38.838;2023-02-01T00:09:33;98872.22;;;2.56;62.47
68456;BME280;55437;55.046;38.838;2023-02-01T00:11:59;98870.59;;;2.53;62.65
68456;BME280;55437;55.046;38.838;2023-02-01T00:14:27;98876.44;;;2.55;62.69
68456;BME280;55437;55.046;38.838;2023-02-01T00:16:53;98881.44;;;2.60;62.89
68456;BME280;55437;55.046;38.838;2023-02-01T00:19:19;98875.56;;;2.56;63.00
68456;BME280;55437;55.046;38.838;2023-02-01T00:21:44;98872.03;;;2.66;62.58
68456;BME280;55437;55.046;38.838;2023-02-01T00:24:11;98875.34;;;2.71;62.18
68456;BME280;55437;55.046;38.838;2023-02-01T00:26:38;98874.47;;;2.74;62.48
68456;BME280;55437;55.046;38.838;2023-02-01T00:29:09;98872.72;;;2.77;62.57
68456;BME280;55437;55.046;38.838;2023-02-01T00:31:36;98872.66;;;2.80;62.24
68456;BME280;55437;55.046;38.838;2023-02-01T00:34:01;98876.06;;;2.79;62.12
68456;BME280;55437;55.046;38.838;2023-02-01T00:36:27;98874.53;;;2.69;62.39
68456;BME280;55437;55.046;38.838;2023-02-01T00:38:55;98879.75;;;2.60;62.56
68456;BME280;55437;55.046;38.838;2023-02-01T00:41:21;98881.47;;;2.58;62.89
68456;BME280;55437;55.046;38.838;2023-02-01T00:43:48;98875.72;;;2.47;62.99
68456;BME280;55437;55.046;38.838;2023-02-01T00:46:16;98877.41;;;2.48;63.10
68456;BME280;55437;55.046;38.838;2023-02-01T00:48:42;98874.84;;;2.49;62.82
68456;BME280;55437;55.046;38.838;2023-02-01T00:51:10;98874.09;;;2.43;63.20
68456;BME280;55437;55.046;38.838;2023-02-01T00:53:36;98873.34;;;2.38;63.36
68456;BME280;55437;55.046;38.838;2023-02-01T00:56:03;98878.28;;;2.44;63.17
68456;BME280;55437;55.046;38.838;2023-02-01T00:58:29;98875.84;;;2.41;63.47
68456;BME280;55437;55.046;38.838;2023-02-01T01:01:17;98874.00;;;2.50;63.07
68456;BME280;55437;55.046;38.838;2023-02-01T01:03:46;98874.88;;;2.46;62.86
68456;BME280;55437;55.046;38.838;2023-02-01T01:06:15;98880.78;;;2.48;63.00
68456;BME280;55437;55.046;38.838;2023-02-01T01:08:42;98879.94;;;2.46;62.79
68456;BME280;55437;55.046;38.838;2023-02-01T01:11:15;98874.91;;;2.45;63.02
68456;BME280;55437;55.046;38.838;2023-02-01T01:13:41;98879.91;;;2.51;62.96
68456;BME280;55437;55.046;38.838;2023-02-01T01:16:09;98878.25;;;2.48;63.06
68456;BME280;55437;55.046;38.838;2023-02-01T01:18:35;98879.19;;;2.41;63.29
68456;BME280;55437;55.046;38.838;2023-02-01T01:21:04;98880.91;;;2.41;63.13
68456;BME280;55437;55.046;38.838;2023-02-01T01:23:29;98883.53;;;2.33;63.37
68456;BME280;55437;55.046;38.838;2023-02-01T01:25:55;98874.22;;;2.34;63.34
68456;BME280;55437;55.046;38.838;2023-02-01T01:28:21;98876.84;;;2.29;63.40
68456;BME280;55437;55.046;38.838;2023-02-01T01:30:47;98886.03;;;2.35;63.24
68456;BME280;55437;55.046;38.838;2023-02-01T01:33:13;98880.94;;;2.38;63.40
68456;BME280;55437;55.046;38.838;2023-02-01T01:35:39;98877.56;;;2.37;63.29
68456;BME280;55437;55.046;38.838;2023-02-01T01:38:05;98881.69;;;2.43;63.03
68456;BME280;55437;55.046;38.838;2023-02-01T01:40:31;98883.34;;;2.45;63.22
68456;BME280;55437;55.046;38.838;2023-02-01T01:42:57;98877.47;;;2.42;63.44
68456;BME280;55437;55.046;38.838;2023-02-01T01:45:30;98882.53;;;2.42;63.37
68456;BME280;55437;55.046;38.838;2023-02-01T01:48:00;98883.44;;;2.41;63.42
68456;BME280;55437;55.046;38.838;2023-02-01T01:50:51;98885.84;;;2.47;63.32
68456;BME280;55437;55.046;38.838;2023-02-01T01:53:24;98881.47;;;2.58;62.93
68456;BME280;55437;55.046;38.838;2023-02-01T01:55:53;98884.72;;;2.66;62.58
68456;BME280;55437;55.046;38.838;2023-02-01T01:58:22;98880.41;;;2.71;62.06
68456;BME280;55437;55.046;38.838;2023-02-01T02:00:51;98892.25;;;2.71;62.54
68456;BME280;55437;55.046;38.838;2023-02-01T02:06:00;98884.88;;;2.56;62.70
68456;BME280;55437;55.046;38.838;2023-02-01T02:08:28;98891.59;;;2.58;62.95
68456;BME280;55437;55.046;38.838;2023-02-01T02:10:54;98887.22;;;2.68;62.69
68456;BME280;55437;55.046;38.838;2023-02-01T02:13:49;98885.34;;;2.79;61.91
68456;BME280;55437;55.046;38.838;2023-02-01T02:18:56;98893.88;;;2.76;62.17
68456;BME280;55437;55.046;38.838;2023-02-01T02:27:33;98885.63;;;2.62;62.23
68456;BME280;55437;55.046;38.838;2023-02-01T02:41:15;98892.47;;;2.57;62.72
68456;BME280;55437;55.046;38.838;2023-02-01T02:44:11;98898.53;;;2.47;62.79
68456;BME280;55437;55.046;38.838;2023-02-01T02:47:03;98886.63;;;2.53;62.74
68456;BME280;55437;55.046;38.838;2023-02-01T02:50:00;98902.69;;;2.51;62.69
68456;BME280;55437;55.046;38.838;2023-02-01T02:52:53;98896.63;;;2.61;62.60
68456;BME280;55437;55.046;38.838;2023-02-01T02:55:41;98894.00;;;2.67;62.00
68456;BME280;55437;55.046;38.838;2023-02-01T02:58:08;98898.34;;;2.59;62.20
68456;BME280;55437;55.046;38.838;2023-02-01T03:00:54;98896.78;;;2.52;62.48
68456;BME280;55437;55.046;38.838;2023-02-01T03:03:41;98900.16;;;2.51;62.72
68456;BME280;55437;55.046;38.838;2023-02-01T03:06:26;98905.97;;;2.56;62.45
68456;BME280;55437;55.046;38.838;2023-02-01T03:08:57;98895.03;;;2.54;62.46
68456;BME280;55437;55.046;38.838;2023-02-01T03:11:24;98891.59;;;2.58;62.34
68456;BME280;55437;55.046;38.838;2023-02-01T03:14:10;98898.38;;;2.58;62.49
68456;BME280;55437;55.046;38.838;2023-02-01T03:17:07;98899.19;;;2.60;62.17
68456;BME280;55437;55.046;38.838;2023-02-01T03:19:48;98892.50;;;2.54;62.29
68456;BME280;55437;55.046;38.838;2023-02-01T03:22:27;98900.16;;;2.52;62.43
68456;BME280;55437;55.046;38.838;2023-02-01T03:25:20;98904.34;;;2.53;62.48
68456;BME280;55437;55.046;38.838;2023-02-01T03:28:00;98899.31;;;2.52;62.20
68456;BME280;55437;55.046;38.838;2023-02-01T03:30:34;98901.06;;;2.45;62.48
68456;BME280;55437;55.046;38.838;2023-02-01T03:33:05;98910.41;;;2.42;62.68
68456;BME280;55437;55.046;38.838;2023-02-01T03:35:47;98907.00;;;2.43;62.59
68456;BME280;55437;55.046;38.838;2023-02-01T03:38:30;98915.47;;;2.43;62.86
68456;BME280;55437;55.046;38.838;2023-02-01T03:41:06;98920.50;;;2.45;62.68
68456;BME280;55437;55.046;38.838;2023-02-01T03:46:33;98915.25;;;2.57;62.60
68456;BME280;55437;55.046;38.838;2023-02-01T03:49:10;98924.50;;;2.63;62.41
68456;BME280;55437;55.046;38.838;2023-02-01T03:51:40;98926.03;;;2.71;61.99
68456;BME280;55437;55.046;38.838;2023-02-01T03:54:10;98925.22;;;2.69;62.02
68456;BME280;55437;55.046;38.838;2023-02-01T03:56:38;98929.44;;;2.69;62.01
68456;BME280;55437;55.046;38.838;2023-02-01T03:59:05;98933.59;;;2.76;62.16
68456;BME280;55437;55.046;38.838;2023-02-01T04:01:34;98931.03;;;2.77;61.82
68456;BME280;55437;55.046;38.838;2023-02-01T04:04:00;98929.38;;;2.75;61.92
68456;BME280;55437;55.046;38.838;2023-02-01T04:06:26;98926.91;;;2.70;61.98
68456;BME280;55437;55.046;38.838;2023-02-01T04:08:53;98931.97;;;2.69;62.31
68456;BME280;55437;55.046;38.838;2023-02-01T04:11:20;98932.94;;;2.63;62.08
68456;BME280;55437;55.046;38.838;2023-02-01T04:13:45;98926.28;;;2.54;62.29
68456;BME280;55437;55.046;38.838;2023-02-01T04:16:11;98936.47;;;2.51;62.32
68456;BME280;55437;55.046;38.838;2023-02-01T04:18:37;98937.41;;;2.43;62.66
68456;BME280;55437;55.046;38.838;2023-02-01T04:21:03;98940.03;;;2.38;62.85
68456;BME280;55437;55.046;38.838;2023-02-01T04:23:29;98939.94;;;2.43;62.80
68456;BME280;55437;55.046;38.838;2023-02-01T04:26:03;98950.84;;;2.51;62.67
68456;BME280;55437;55.046;38.838;2023-02-01T04:28:29;98948.13;;;2.65;62.27
68456;BME280;55437;55.046;38.838;2023-02-01T04:30:55;98943.81;;;2.68;62.08
68456;BME280;55437;55.046;38.838;2023-02-01T04:33:21;98953.88;;;2.74;62.05
68456;BME280;55437;55.046;38.838;2023-02-01T04:35:47;98959.91;;;2.66;62.13
68456;BME280;55437;55.046;38.838;2023-02-01T04:38:13;98964.06;;;2.70;62.17
68456;BME280;55437;55.046;38.838;2023-02-01T04:40:39;98965.63;;;2.78;62.23
68456;BME280;55437;55.046;38.838;2023-02-01T04:43:04;98965.63;;;2.78;61.87
68456;BME280;55437;55.046;38.838;2023-02-01T04:45:30;98967.38;;;2.76;61.89
68456;BME280;55437;55.046;38.838;2023-02-01T04:47:56;98972.50;;;2.72;61.91
68456;BME280;55437;55.046;38.838;2023-02-01T04:50:22;98975.00;;;2.73;62.08
68456;BME280;55437;55.046;38.838;2023-02-01T04:52:49;98972.47;;;2.75;62.12
68456;BME280;55437;55.046;38.838;2023-02-01T04:55:14;98978.38;;;2.75;61.81
68456;BME280;55437;55.046;38.838;2023-02-01T04:57:40;98975.75;;;2.78;61.69
68456;BME280;55437;55.046;38.838;2023-02-01T05:00:07;98984.16;;;2.83;61.75
68456;BME280;55437;55.046;38.838;2023-02-01T05:02:34;98986.69;;;2.83;62.00
68456;BME280;55437;55.046;38.838;2023-02-01T05:05:01;98979.94;;;2.82;61.83
68456;BME280;55437;55.046;38.838;2023-02-01T05:07:26;98986.78;;;2.77;61.98
68456;BME280;55437;55.046;38.838;2023-02-01T05:09:52;98991.22;;;2.63;62.33
68456;BME280;55437;55.046;38.838;2023-02-01T05:12:18;98987.03;;;2.61;62.24
68456;BME280;55437;55.046;38.838;2023-02-01T05:15:03;98983.69;;;2.57;62.29
68456;BME280;55437;55.046;38.838;2023-02-01T05:17:29;98987.06;;;2.56;62.46
68456;BME280;55437;55.046;38.838;2023-02-01T05:19:55;98984.59;;;2.53;62.31
68456;BME280;55437;55.046;38.838;2023-02-01T05:22:20;98992.16;;;2.54;62.66
68456;BME280;55437;55.046;38.838;2023-02-01T05:24:46;98991.28;;;2.57;62.35
68456;BME280;55437;55.046;38.838;2023-02-01T05:27:12;98986.31;;;2.51;62.28
68456;BME280;55437;55.046;38.838;2023-02-01T05:29:37;98986.31;;;2.51;62.23
68456;BME280;55437;55.046;38.838;2023-02-01T05:32:03;98992.28;;;2.45;62.68
68456;BME280;55437;55.046;38.838;2023-02-01T05:34:29;98990.47;;;2.55;62.60
68456;BME280;55437;55.046;38.838;2023-02-01T05:36:54;98993.06;;;2.52;62.40
68456;BME280;55437;55.046;38.838;2023-02-01T05:39:20;98995.59;;;2.50;62.47
68456;BME280;55437;55.046;38.838;2023-02-01T05:41:46;98990.56;;;2.49;62.50
68456;BME280;55437;55.046;38.838;2023-02-01T05:44:11;98993.91;;;2.51;62.46
68456;BME280;55437;55.046;38.838;2023-02-01T05:46:37;98995.59;;;2.52;62.54
68456;BME280;55437;55.046;38.838;2023-02-01T05:49:04;98996.38;;;2.56;62.55
68456;BME280;55437;55.046;38.838;2023-02-01T05:51:30;98993.78;;;2.59;62.20
68456;BME280;55437;55.046;38.838;2023-02-01T05:53:55;98998.81;;;2.65;62.05
68456;BME280;55437;55.046;38.838;2023-02-01T05:56:21;98996.19;;;2.68;62.20
68456;BME280;55437;55.046;38.838;2023-02-01T05:58:47;98998.13;;;2.52;62.40
68456;BME280;55437;55.046;38.838;2023-02-01T06:01:12;98993.22;;;2.40;62.85
68456;BME280;55437;55.046;38.838;2023-02-01T06:03:38;98999.19;;;2.34;63.16
68456;BME280;55437;55.046;38.838;2023-02-01T06:06:04;99004.09;;;2.45;62.81
68456;BME280;55437;55.046;38.838;2023-02-01T06:08:30;99004.03;;;2.52;62.83
68456;BME280;55437;55.046;38.838;2023-02-01T06:11:01;99003.06;;;2.61;62.26
68456;BME280;55437;55.046;38.838;2023-02-01T06:13:27;99003.06;;;2.61;62.14
68456;BME280;55437;55.046;38.838;2023-02-01T06:15:53;99002.25;;;2.58;62.33
68456;BME280;55437;55.046;38.838;2023-02-01T06:18:19;99005.75;;;2.50;62.28
68456;BME280;55437;55.046;38.838;2023-02-01T06:20:45;99005.63;;;2.60;62.39
68456;BME280;55437;55.046;38.838;2023-02-01T06:23:10;99001.34;;;2.63;62.15
68456;BME280;55437;55.046;38.838;2023-02-01T06:25:36;99006.41;;;2.63;62.01
68456;BME280;55437;55.046;38.838;2023-02-01T06:28:02;99005.66;;;2.57;62.38
68456;BME280;55437;55.046;38.838;2023-02-01T06:30:31;99003.25;;;2.47;62.46
68456;BME280;55437;55.046;38.838;2023-02-01T06:32:57;99008.44;;;2.37;62.40
68456;BME280;55437;55.046;38.838;2023-02-01T06:35:23;99004.19;;;2.40;62.59
68456;BME280;55437;55.046;38.838;2023-02-01T06:37:48;99011.66;;;2.51;62.52
68456;BME280;55437;55.046;38.838;2023-02-01T06:40:14;99005.66;;;2.55;62.20
68456;BME280;55437;55.046;38.838;2023-02-01T06:42:40;99015.78;;;2.55;62.00
68456;BME280;55437;55.046;38.838;2023-02-01T06:45:06;99014.06;;;2.60;62.22
68456;BME280;55437;55.046;38.838;2023-02-01T06:47:32;99013.09;;;2.67;62.00
68456;BME280;55437;55.046;38.838;2023-02-01T06:49:58;99021.53;;;2.69;61.92
68456;BME280;55437;55.046;38.838;2023-02-01T06:52:23;99019.91;;;2.65;62.03
68456;BME280;55437;55.046;38.838;2023-02-01T06:54:49;99025.75;;;2.70;61.91
68456;BME280;55437;55.046;38.838;2023-02-01T06:57:15;99029.16;;;2.66;61.72
68456;BME280;55437;55.046;38.838;2023-02-01T06:59:40;99032.50;;;2.71;61.59
68456;BME280;55437;55.046;38.838;2023-02-01T07:02:10;99031.63;;;2.74;61.34
68456;BME280;55437;55.046;38.838;2023-02-01T07:04:36;99039.13;;;2.78;61.48
68456;BME280;55437;55.046;38.838;2023-02-01T07:07:01;99041.66;;;2.80;61.45
68456;BME280;55437;55.046;38.838;2023-02-01T07:09:27;99044.19;;;2.80;61.51
68456;BME280;55437;55.046;38.838;2023-02-01T07:11:53;99043.47;;;2.70;61.34
68456;BME280;55437;55.046;38.838;2023-02-01T07:14:19;99045.34;;;2.58;61.96
68456;BME280;55437;55.046;38.838;2023-02-01T07:16:44;99050.38;;;2.59;62.02
68456;BME280;55437;55.046;38.838;2023-02-01T07:19:10;99046.19;;;2.57;61.99
68456;BME280;55437;55.046;38.838;2023-02-01T07:21:36;99057.13;;;2.60;62.01
68456;BME280;55437;55.046;38.838;2023-02-01T07:24:01;99046.97;;;2.63;61.83
68456;BME280;55437;55.046;38.838;2023-02-01T07:26:27;99043.63;;;2.60;61.59
68456;BME280;55437;55.046;38.838;2023-02-01T07:28:53;99051.13;;;2.66;61.39
68456;BME280;55437;55.046;38.838;2023-02-01T07:31:19;99060.47;;;2.64;61.57
68456;BME280;55437;55.046;38.838;2023-02-01T07:33:48;99050.34;;;2.62;61.84
68456;BME280;55437;55.046;38.838;2023-02-01T07:36:17;99053.75;;;2.61;61.72
68456;BME280;55437;55.046;38.838;2023-02-01T07:38:43;99053.63;;;2.69;61.76
68456;BME280;55437;55.046;38.838;2023-02-01T07:41:10;99054.44;;;2.74;61.40
68456;BME280;55437;55.046;38.838;2023-02-01T07:43:36;99058.53;;;2.82;61.30
68456;BME280;55437;55.046;38.838;2023-02-01T07:46:02;99054.28;;;2.84;61.31
68456;BME280;55437;55.046;38.838;2023-02-01T07:48:29;99051.59;;;2.95;60.91
68456;BME280;55437;55.046;38.838;2023-02-01T07:51:07;99058.34;;;2.96;60.66
68456;BME280;55437;55.046;38.838;2023-02-01T07:53:34;99062.53;;;2.99;60.70
68456;BME280;55437;55.046;38.838;2023-02-01T07:56:00;99055.00;;;2.94;60.74
68456;BME280;55437;55.046;38.838;2023-02-01T07:58:27;99061.75;;;2.94;60.79
68456;BME280;55437;55.046;38.838;2023-02-01T08:00:53;99055.97;;;2.84;61.01
68456;BME280;55437;55.046;38.838;2023-02-01T08:03:37;99049.19;;;2.87;61.11
68456;BME280;55437;55.046;38.838;2023-02-01T08:06:03;99055.00;;;2.93;60.63
68456;BME280;55437;55.046;38.838;2023-02-01T08:08:30;99055.94;;;2.87;61.11
68456;BME280;55437;55.046;38.838;2023-02-01T08:11:00;99054.16;;;2.94;60.81
68456;BME280;55437;55.046;38.838;2023-02-01T08:13:26;99054.94;;;2.99;60.49
68456;BME280;55437;55.046;38.838;2023-02-01T08:15:52;99062.50;;;3.02;60.39
68456;BME280;55437;55.046;38.838;2023-02-01T08:18:18;99057.28;;;3.12;60.43
68456;BME280;55437;55.046;38.838;2023-02-01T08:20:44;99047.06;;;3.17;60.15
68456;BME280;55437;55.046;38.838;2023-02-01T08:23:13;99047.72;;;3.28;59.94
68456;BME280;55437;55.046;38.838;2023-02-01T08:25:40;99035.91;;;3.27;59.94
68456;BME280;55437;55.046;38.838;2023-02-01T08:28:06;99036.81;;;3.24;60.03
68456;BME280;55437;55.046;38.838;2023-02-01T08:30:32;99036.69;;;3.32;59.67
68456;BME280;55437;55.046;38.838;2023-02-01T08:32:58;99039.06;;;3.41;59.37
68456;BME280;55437;55.046;38.838;2023-02-01T08:35:23;99039.91;;;3.40;59.74
68456;BME280;55437;55.046;38.838;2023-02-01T08:37:50;99040.75;;;3.42;59.61
68456;BME280;55437;55.046;38.838;2023-02-01T08:40:16;99040.69;;;3.47;59.45
68456;BME280;55437;55.046;38.838;2023-02-01T08:42:42;99042.19;;;3.58;59.40
68456;BME280;55437;55.046;38.838;2023-02-01T08:45:28;99038.88;;;3.53;59.23
68456;BME280;55437;55.046;38.838;2023-02-01T08:47:56;99039.91;;;3.42;59.33
68456;BME280;55437;55.046;38.838;2023-02-01T08:50:23;99045.00;;;3.40;59.70
68456;BME280;55437;55.046;38.838;2023-02-01T08:52:49;99041.69;;;3.37;59.31
68456;BME280;55437;55.046;38.838;2023-02-01T08:55:15;99046.16;;;3.19;59.68
68456;BME280;55437;55.046;38.838;2023-02-01T08:57:41;99045.53;;;3.05;60.05
68456;BME280;55437;55.046;38.838;2023-02-01T09:00:10;99050.59;;;3.07;60.03
68456;BME280;55437;55.046;38.838;2023-02-01T09:02:36;99035.31;;;3.11;60.13
68456;BME280;55437;55.046;38.838;2023-02-01T09:05:03;99028.56;;;3.10;60.21
68456;BME280;55437;55.046;38.838;2023-02-01T09:07:29;99035.09;;;3.25;59.79
68456;BME280;55437;55.046;38.838;2023-02-01T09:09:55;99032.50;;;3.28;59.79
68456;BME280;55437;55.046;38.838;2023-02-01T09:12:24;99036.75;;;3.26;59.75
68456;BME280;55437;55.046;38.838;2023-02-01T09:14:50;99038.34;;;3.33;59.37
68456;BME280;55437;55.046;38.838;2023-02-01T09:17:16;99032.41;;;3.34;59.32
68456;BME280;55437;55.046;38.838;2023-02-01T09:19:41;99038.13;;;3.48;59.41
68456;BME280;55437;55.046;38.838;2023-02-01T09:22:10;99034.63;;;3.54;59.05
68456;BME280;55437;55.046;38.838;2023-02-01T09:24:35;99033.78;;;3.53;58.90
68456;BME280;55437;55.046;38.838;2023-02-01T09:27:01;99028.06;;;3.42;58.93
68456;BME280;55437;55.046;38.838;2023-02-01T09:29:27;99030.63;;;3.39;59.17
68456;BME280;55437;55.046;38.838;2023-02-01T09:31:52;99026.28;;;3.47;59.16
68456;BME280;55437;55.046;38.838;2023-02-01T09:34:18;99022.13;;;3.43;59.23
68456;BME280;55437;55.046;38.838;2023-02-01T09:36:44;99017.81;;;3.48;59.29
68456;BME280;55437;55.046;38.838;2023-02-01T09:39:09;99016.88;;;3.52;59.07
68456;BME280;55437;55.046;38.838;2023-02-01T09:44:47;99026.81;;;3.65;58.72
68456;BME280;55437;55.046;38.838;2023-02-01T09:47:22;99019.13;;;3.71;58.76
68456;BME280;55437;55.046;38.838;2023-02-01T09:50:03;99018.88;;;3.84;58.59
68456;BME280;55437;55.046;38.838;2023-02-01T09:52:44;99018.91;;;3.83;58.63
68456;BME280;55437;55.046;38.838;2023-02-01T09:55:27;99019.78;;;3.82;58.07
68456;BME280;55437;55.046;38.838;2023-02-01T09:57:59;99006.81;;;3.95;57.93
68456;BME280;55437;55.046;38.838;2023-02-01T10:00:34;99009.50;;;3.88;58.20
68456;BME280;55437;55.046;38.838;2023-02-01T10:03:00;99007.16;;;3.77;58.31
68456;BME280;55437;55.046;38.838;2023-02-01T10:06:01;99002.91;;;3.78;58.11
68456;BME280;55437;55.046;38.838;2023-02-01T10:17:53;99002.50;;;3.51;58.31
68456;BME280;55437;55.046;38.838;2023-02-01T10:28:03;98998.47;;;3.40;58.46
68456;BME280;55437;55.046;38.838;2023-02-01T10:30:46;99000.13;;;3.42;58.70
68456;BME280;55437;55.046;38.838;2023-02-01T10:33:23;99006.13;;;3.38;58.72
68456;BME280;55437;55.046;38.838;2023-02-01T10:35:55;98997.78;;;3.32;58.93
68456;BME280;55437;55.046;38.838;2023-02-01T10:38:30;98994.53;;;3.25;59.15
68456;BME280;55437;55.046;38.838;2023-02-01T10:41:02;98996.41;;;3.14;59.36
68456;BME280;55437;55.046;38.838;2023-02-01T10:43:30;99001.69;;;2.99;59.53
68456;BME280;55437;55.046;38.838;2023-02-01T10:45:56;98997.44;;;3.01;59.65
68456;BME280;55437;55.046;38.838;2023-02-01T10:48:22;98995.59;;;3.10;59.38
68456;BME280;55437;55.046;38.838;2023-02-01T10:50:55;98999.03;;;3.05;59.21
68456;BME280;55437;55.046;38.838;2023-02-01T10:53:31;98999.22;;;2.94;59.65
68456;BME280;55437;55.046;38.838;2023-02-01T10:56:10;98998.50;;;2.84;60.07
68456;BME280;55437;55.046;38.838;2023-02-01T10:58:43;98998.63;;;2.77;59.98
68456;BME280;55437;55.046;38.838;2023-02-01T11:01:16;98992.59;;;2.85;59.94
68456;BME280;55437;55.046;38.838;2023-02-01T11:03:59;98995.09;;;2.87;59.69
68456;BME280;55437;55.046;38.838;2023-02-01T11:06:33;98998.53;;;2.83;59.67
68456;BME280;55437;55.046;38.838;2023-02-01T11:11:56;98987.13;;;3.11;59.02
68456;BME280;55437;55.046;38.838;2023-02-01T11:14:38;98990.69;;;3.00;59.17
68456;BME280;55437;55.046;38.838;2023-02-01T11:17:43;98978.91;;;2.96;59.06
68456;BME280;55437;55.046;38.838;2023-02-01T11:20:21;98984.03;;;2.91;58.93
68456;BME280;55437;55.046;38.838;2023-02-01T11:22:58;98989.16;;;2.89;58.85
68456;BME280;55437;55.046;38.838;2023-02-01T11:25:24;98998.50;;;2.84;58.83
68456;BME280;55437;55.046;38.838;2023-02-01T11:27:53;98996.78;;;2.86;58.77
68456;BME280;55437;55.046;38.838;2023-02-01T11:30:38;98995.97;;;2.84;58.55
68456;BME280;55437;55.046;38.838;2023-02-01T11:33:07;98996.84;;;2.82;58.65
68456;BME280;55437;55.046;38.838;2023-02-01T11:35:40;98999.50;;;2.76;58.74
68456;BME280;55437;55.046;38.838;2023-02-01T11:40:49;99009.59;;;2.77;59.15
68456;BME280;55437;55.046;38.838;2023-02-01T11:43:26;99013.03;;;2.73;59.08
68456;BME280;55437;55.046;38.838;2023-02-01T11:46:00;99008.84;;;2.71;58.80
68456;BME280;55437;55.046;38.838;2023-02-01T11:48:31;99008.13;;;2.63;58.92
68456;BME280;55437;55.046;38.838;2023-02-01T11:59:32;99007.78;;;2.87;58.74
68456;BME280;55437;55.046;38.838;2023-02-01T12:02:13;99014.56;;;2.83;58.99
68456;BME280;55437;55.046;38.838;2023-02-01T12:08:12;99019.81;;;2.73;59.22
68456;BME280;55437;55.046;38.838;2023-02-01T12:16:06;99026.72;;;2.60;59.15
68456;BME280;55437;55.046;38.838;2023-02-01T12:19:04;99025.97;;;2.53;59.35
68456;BME280;55437;55.046;38.838;2023-02-01T12:21:44;99026.88;;;2.48;59.33
68456;BME280;55437;55.046;38.838;2023-02-01T12:30:02;99039.44;;;2.57;59.48
68456;BME280;55437;55.046;38.838;2023-02-01T12:38:16;99054.16;;;2.28;60.33
68456;BME280;55437;55.046;38.838;2023-02-01T12:46:22;99055.91;;;2.21;60.41
68456;BME280;55437;55.046;38.838;2023-02-01T12:51:26;99049.25;;;2.11;60.75
68456;BME280;55437;55.046;38.838;2023-02-01T12:54:12;99053.50;;;2.07;60.84
68456;BME280;55437;55.046;38.838;2023-02-01T12:56:56;99054.28;;;2.14;60.62
68456;BME280;55437;55.046;38.838;2023-02-01T12:59:28;99053.44;;;2.15;60.99
68456;BME280;55437;55.046;38.838;2023-02-01T13:04:49;99062.53;;;2.33;60.58
68456;BME280;55437;55.046;38.838;2023-02-01T13:10:26;99052.34;;;2.36;60.76
68456;BME280;55437;55.046;38.838;2023-02-01T13:13:08;99056.69;;;2.26;60.67
68456;BME280;55437;55.046;38.838;2023-02-01T13:15:43;99065.19;;;2.21;60.89
68456;BME280;55437;55.046;38.838;2023-02-01T13:18:14;99057.69;;;2.11;61.32
68456;BME280;55437;55.046;38.838;2023-02-01T13:20:52;99060.19;;;2.16;61.12
68456;BME280;55437;55.046;38.838;2023-02-01T13:23:26;99061.81;;;2.18;61.11
68456;BME280;55437;55.046;38.838;2023-02-01T13:25:53;99054.22;;;2.20;60.97
68456;BME280;55437;55.046;38.838;2023-02-01T13:28:28;99066.00;;;2.26;61.16
68456;BME280;55437;55.046;38.838;2023-02-01T13:42:01;99062.59;;;2.27;61.29
68456;BME280;55437;55.046;38.838;2023-02-01T13:44:37;99060.97;;;2.21;60.93
68456;BME280;55437;55.046;38.838;2023-02-01T13:47:10;99062.53;;;2.33;61.33
68456;BME280;55437;55.046;38.838;2023-02-01T13:49:39;99067.59;;;2.30;60.68
68456;BME280;55437;55.046;38.838;2023-02-01T13:52:16;99068.59;;;2.18;60.98
68456;BME280;55437;55.046;38.838;2023-02-01T13:54:46;99066.97;;;2.12;61.40
68456;BME280;55437;55.046;38.838;2023-02-01T13:57:35;99070.38;;;2.07;61.51
68456;BME280;55437;55.046;38.838;2023-02-01T14:00:06;99067.81;;;2.11;61.29
68456;BME280;55437;55.046;38.838;2023-02-01T14:05:12;99071.19;;;2.13;61.49
68456;BME280;55437;55.046;38.838;2023-02-01T14:13:33;99083.69;;;2.29;61.07
68456;BME280;55437;55.046;38.838;2023-02-01T14:21:26;99092.88;;;2.39;61.08
68456;BME280;55437;55.046;38.838;2023-02-01T14:26:25;99096.31;;;2.32;61.00
68456;BME280;55437;55.046;38.838;2023-02-01T14:31:52;99094.69;;;2.28;61.03
68456;BME280;55437;55.046;38.838;2023-02-01T14:34:21;99087.84;;;2.33;61.21
68456;BME280;55437;55.046;38.838;2023-02-01T14:36:56;99098.88;;;2.29;61.13
68456;BME280;55437;55.046;38.838;2023-02-01T14:39:26;99106.50;;;2.29;61.29
68456;BME280;55437;55.046;38.838;2023-02-01T14:41:55;99101.50;;;2.18;61.59
68456;BME280;55437;55.046;38.838;2023-02-01T14:44:25;99102.34;;;2.20;61.27
68456;BME280;55437;55.046;38.838;2023-02-01T14:52:40;99110.72;;;2.28;61.06
68456;BME280;55437;55.046;38.838;2023-02-01T14:55:24;99113.25;;;2.28;61.31
68456;BME280;55437;55.046;38.838;2023-02-01T14:57:53;99110.72;;;2.27;61.37
68456;BME280;55437;55.046;38.838;2023-02-01T15:00:24;99110.66;;;2.31;61.34
68456;BME280;55437;55.046;38.838;2023-02-01T15:02:52;99113.19;;;2.30;61.10
68456;BME280;55437;55.046;38.838;2023-02-01T15:05:29;99114.84;;;2.37;61.22
68456;BME280;55437;55.046;38.838;2023-02-01T15:07:58;99104.81;;;2.28;61.54
68456;BME280;55437;55.046;38.838;2023-02-01T15:10:27;99105.59;;;2.30;61.44
68456;BME280;55437;55.046;38.838;2023-02-01T15:12:55;99106.44;;;2.30;61.23
68456;BME280;55437;55.046;38.838;2023-02-01T15:15:23;99105.59;;;2.33;61.12
68456;BME280;55437;55.046;38.838;2023-02-01T15:17:55;99102.28;;;2.26;61.02
68456;BME280;55437;55.046;38.838;2023-02-01T15:20:25;99109.97;;;2.17;61.25
68456;BME280;55437;55.046;38.838;2023-02-01T15:22:52;99112.53;;;2.15;61.17
68456;BME280;55437;55.046;38.838;2023-02-01T15:25:20;99107.44;;;2.17;61.23
68456;BME280;55437;55.046;38.838;2023-02-01T15:27:47;99105.81;;;2.10;61.52